Time;durP1;ratioP1;P1;durP2;ratioP2;P2;SDS_P1;SDS_P2;PMS_P1;PMS_P2;Temp;Humidity;BMP_temperature;BMP_pressure;BME280_temperature;BME280_humidity;BME280_pressure;Samples;Min_cycle;Max_cycle;Signal;HPM_P1;HPM_P2
2022/11/28 00:02:03;;;;;;;20.50;16.90;;;6.40;85.20;;;;;;11017865;32;20049;-74
2022/11/28 00:08:05;;;;;;;18.65;13.43;;;6.40;85.30;;;;;;11017741;32;20030;-73
2022/11/28 00:14:08;;;;;;;13.25;11.20;;;6.50;85.10;;;;;;11017575;32;20092;-73
2022/11/28 00:20:10;;;;;;;14.63;11.75;;;6.50;84.90;;;;;;11017565;32;20374;-73
2022/11/28 00:26:23;;;;;;;18.35;12.70;;;6.50;84.80;;;;;;11003733;32;20323;-73
2022/11/28 00:32:25;;;;;;;14.87;10.95;;;6.50;84.70;;;;;;11017377;32;20022;-74
2022/11/28 00:38:27;;;;;;;15.07;10.45;;;6.50;84.70;;;;;;11017098;32;20056;-73
2022/11/28 00:44:29;;;;;;;12.35;9.32;;;6.50;84.70;;;;;;11014098;32;20029;-73
2022/11/28 00:50:31;;;;;;;10.60;8.60;;;6.50;84.60;;;;;;11021696;32;20027;-73
2022/11/28 00:56:36;;;;;;;10.20;8.70;;;6.50;84.70;;;;;;11010604;32;20420;-73
2022/11/28 01:02:38;;;;;;;11.57;7.70;;;6.50;84.80;;;;;;11023840;32;20057;-73
2022/11/28 01:08:40;;;;;;;15.13;8.98;;;6.50;85.10;;;;;;11023502;32;20052;-73
2022/11/28 01:14:42;;;;;;;8.48;6.30;;;6.50;85.30;;;;;;11019091;32;20362;-74
2022/11/28 01:20:44;;;;;;;12.37;7.40;;;6.50;85.50;;;;;;11018825;32;20049;-73
2022/11/28 01:26:46;;;;;;;13.43;8.77;;;6.50;85.50;;;;;;11018430;32;20030;-73
2022/11/28 01:32:49;;;;;;;10.85;7.65;;;6.50;85.30;;;;;;11009063;32;20338;-73
2022/11/28 01:38:51;;;;;;;9.63;7.80;;;6.50;85.20;;;;;;11022456;32;20022;-73
2022/11/28 01:44:53;;;;;;;9.30;6.90;;;6.50;85.20;;;;;;11022327;32;20296;-73
2022/11/28 01:50:59;;;;;;;8.93;6.70;;;6.50;85.00;;;;;;11022094;32;20026;-73
2022/11/28 01:57:07;;;;;;;10.80;7.40;;;6.40;85.00;;;;;;11021827;32;20022;-73
2022/11/28 02:03:24;;;;;;;10.85;7.47;;;6.40;85.10;;;;;;11020960;32;20390;-73
2022/11/28 02:09:27;;;;;;;10.98;7.47;;;6.40;85.30;;;;;;11021365;32;20417;-73
2022/11/28 02:15:41;;;;;;;9.75;8.27;;;6.40;85.50;;;;;;11020286;32;20425;-72
2022/11/28 02:21:45;;;;;;;9.93;7.30;;;6.40;85.60;;;;;;11020943;32;20021;-73
2022/11/28 02:28:25;;;;;;;12.40;8.15;;;6.30;85.60;;;;;;11020812;32;20069;-72
2022/11/28 02:34:56;;;;;;;9.10;7.20;;;6.30;85.60;;;;;;11020481;32;20420;-74
2022/11/28 02:41:39;;;;;;;12.90;7.43;;;6.20;85.70;;;;;;11020241;32;20061;-73
2022/11/28 02:47:48;;;;;;;8.68;5.43;;;6.20;85.50;;;;;;10828198;32;20054;-73
2022/11/28 02:53:52;;;;;;;8.88;7.15;;;6.20;85.40;;;;;;10815665;32;20051;-73
2022/11/28 02:59:54;;;;;;;9.55;6.35;;;6.10;85.30;;;;;;10827502;32;20054;-73
2022/11/28 03:05:59;;;;;;;9.98;6.75;;;6.10;85.30;;;;;;10828423;32;20031;-73
2022/11/28 03:12:27;;;;;;;9.40;6.45;;;6.10;85.20;;;;;;10828092;32;20046;-73
2022/11/28 03:18:57;;;;;;;7.47;5.32;;;6.10;85.30;;;;;;10826217;32;20028;-73
2022/11/28 03:25:35;;;;;;;9.70;6.72;;;6.10;85.40;;;;;;11000383;32;20018;-73
2022/11/28 03:31:50;;;;;;;8.68;4.90;;;6.10;85.50;;;;;;11018366;32;20038;-74
2022/11/28 03:37:58;;;;;;;8.90;5.97;;;6.10;85.40;;;;;;11018043;32;20269;-74
2022/11/28 03:44:02;;;;;;;8.93;5.82;;;6.10;85.30;;;;;;11017350;32;20030;-74
2022/11/28 03:50:10;;;;;;;9.85;6.53;;;6.10;85.30;;;;;;11017620;32;20092;-74
2022/11/28 03:56:18;;;;;;;9.25;5.80;;;6.10;85.20;;;;;;11004146;32;20027;-74
2022/11/28 04:02:31;;;;;;;8.70;6.22;;;6.00;85.20;;;;;;11017566;32;20030;-74
2022/11/28 04:08:48;;;;;;;8.55;5.12;;;5.90;85.20;;;;;;11015736;32;20049;-75
2022/11/28 04:14:56;;;;;;;7.60;5.40;;;5.90;85.30;;;;;;11017377;32;20019;-75
2022/11/28 04:21:16;;;;;;;9.07;5.05;;;5.90;85.30;;;;;;11003702;32;20054;-74
2022/11/28 04:27:22;;;;;;;9.52;5.43;;;6.00;85.40;;;;;;11024651;32;20058;-74
2022/11/28 04:33:28;;;;;;;11.68;7.05;;;6.00;85.40;;;;;;11020742;32;20053;-74
2022/11/28 04:39:33;;;;;;;7.80;4.78;;;6.10;85.40;;;;;;11024305;32;20380;-75
2022/11/28 04:45:44;;;;;;;8.30;5.03;;;6.10;85.30;;;;;;11024000;32;20034;-75
2022/11/28 04:51:59;;;;;;;8.50;4.78;;;6.00;85.30;;;;;;11023953;32;20026;-74
2022/11/28 04:58:32;;;;;;;8.52;5.12;;;5.90;85.30;;;;;;11010120;32;20018;-74
2022/11/28 05:04:36;;;;;;;7.93;4.78;;;5.90;85.50;;;;;;11023482;32;20045;-75
2022/11/28 05:10:38;;;;;;;7.10;4.43;;;5.90;85.40;;;;;;11009712;32;20027;-75
2022/11/28 05:16:40;;;;;;;8.80;6.30;;;5.90;85.40;;;;;;11023162;32;20026;-74
2022/11/28 05:22:42;;;;;;;7.75;5.05;;;6.00;85.40;;;;;;11022905;32;20064;-73
2022/11/28 05:28:49;;;;;;;6.75;4.55;;;6.20;85.50;;;;;;11022967;32;20338;-73
2022/11/28 05:34:51;;;;;;;9.75;7.40;;;6.40;85.60;;;;;;11021654;32;20034;-73
2022/11/28 05:40:53;;;;;;;10.98;7.35;;;6.70;85.70;;;;;;11022475;32;20330;-73
2022/11/28 05:46:56;;;;;;;7.93;5.12;;;6.90;85.30;;;;;;11022158;32;20030;-73
2022/11/28 05:52:58;;;;;;;8.60;5.75;;;6.90;85.00;;;;;;11022071;32;20022;-73
2022/11/28 05:59:00;;;;;;;10.48;5.70;;;6.80;84.90;;;;;;11021695;32;20338;-73
2022/11/28 06:05:02;;;;;;;7.18;4.65;;;6.80;84.90;;;;;;11017284;32;20056;-73
2022/11/28 06:11:04;;;;;;;7.43;4.90;;;6.80;84.90;;;;;;11021380;32;20401;-73
2022/11/28 06:17:06;;;;;;;6.65;4.87;;;6.80;84.70;;;;;;11021213;32;20019;-73
2022/11/28 06:23:08;;;;;;;9.68;6.93;;;6.90;84.90;;;;;;11021047;32;20058;-73
2022/11/28 06:29:11;;;;;;;9.75;6.90;;;7.10;85.10;;;;;;11020653;32;20388;-73
2022/11/28 06:35:14;;;;;;;8.68;7.15;;;7.20;84.90;;;;;;11020228;32;20428;-74
2022/11/28 06:48:25;;;;;;;9.15;6.57;;;7.20;84.60;;;;;;10506552;27;13624248;-73
2022/11/28 06:54:27;;;;;;;9.18;5.40;;;7.30;84.60;;;;;;10903002;32;20027;-75
2022/11/28 07:00:30;;;;;;;6.85;5.03;;;7.40;84.60;;;;;;10900858;32;20462;-75
2022/11/28 07:06:33;;;;;;;8.10;4.75;;;7.40;84.60;;;;;;10867860;32;20061;-74
2022/11/28 07:12:35;;;;;;;10.43;4.25;;;7.50;85.00;;;;;;10906799;32;20065;-75
2022/11/28 07:18:38;;;;;;;6.40;4.85;;;7.60;84.70;;;;;;10995848;32;20034;-74
2022/11/28 07:24:40;;;;;;;8.55;5.60;;;7.50;84.80;;;;;;11013022;32;20107;-74
2022/11/28 07:30:42;;;;;;;10.35;5.72;;;7.60;84.90;;;;;;11018152;32;20023;-74
2022/11/28 07:36:44;;;;;;;7.22;5.28;;;7.70;84.90;;;;;;11018077;32;20037;-74
2022/11/28 07:42:47;;;;;;;9.27;5.40;;;7.80;84.90;;;;;;11017824;32;20014;-74
2022/11/28 07:48:49;;;;;;;11.00;7.70;;;8.00;84.70;;;;;;11013638;32;20065;-75
2022/11/28 07:54:51;;;;;;;12.90;6.53;;;8.10;84.80;;;;;;11017633;32;20022;-74
2022/11/28 08:00:53;;;;;;;9.55;7.03;;;8.20;84.70;;;;;;11017089;32;20022;-74
2022/11/28 08:06:55;;;;;;;8.10;6.75;;;8.10;84.20;;;;;;11014368;32;20049;-74
2022/11/28 08:12:58;;;;;;;12.85;8.80;;;7.90;85.20;;;;;;11013940;32;20054;-75
2022/11/28 08:19:02;;;;;;;9.60;6.47;;;8.20;85.50;;;;;;11016947;32;20033;-75
2022/11/28 08:25:04;;;;;;;10.80;7.80;;;8.40;85.10;;;;;;11017141;32;20056;-75
2022/11/28 08:31:10;;;;;;;14.63;6.57;;;8.40;85.00;;;;;;11017037;32;20038;-74
2022/11/28 08:37:18;;;;;;;11.00;7.97;;;8.50;85.00;;;;;;10987825;32;20406;-74
2022/11/28 08:43:20;;;;;;;11.90;7.80;;;8.60;84.90;;;;;;11002007;32;20043;-75
2022/11/28 08:49:22;;;;;;;10.45;6.93;;;8.70;85.00;;;;;;10978812;32;20031;-75
2022/11/28 08:55:24;;;;;;;11.93;7.47;;;8.80;85.00;;;;;;10993811;32;20030;-75
2022/11/28 09:01:27;;;;;;;12.73;8.20;;;8.90;85.00;;;;;;10983382;32;20034;-75
2022/11/28 09:07:29;;;;;;;8.90;6.78;;;9.10;85.00;;;;;;10983350;32;20026;-75
2022/11/28 09:13:31;;;;;;;8.55;6.35;;;9.20;85.20;;;;;;11017872;32;20023;-74
2022/11/28 09:19:33;;;;;;;8.32;5.53;;;9.20;85.40;;;;;;11018256;32;20359;-74
2022/11/28 09:25:37;;;;;;;7.40;5.43;;;9.00;85.40;;;;;;10999981;32;20030;-74
2022/11/28 09:31:41;;;;;;;6.45;4.35;;;8.70;86.10;;;;;;10968646;32;20045;-75
2022/11/28 09:37:43;;;;;;;9.65;5.93;;;8.90;86.30;;;;;;10981541;32;20019;-75
2022/11/28 09:43:46;;;;;;;7.20;4.75;;;9.00;86.50;;;;;;10983739;32;20049;-73
2022/11/28 09:49:58;;;;;;;6.50;4.05;;;9.20;86.70;;;;;;10984047;32;20037;-74
2022/11/28 09:56:21;;;;;;;12.25;5.35;;;9.20;86.90;;;;;;10983953;32;20398;-73
2022/11/28 10:02:38;;;;;;;7.87;5.05;;;9.40;86.90;;;;;;10983560;32;20037;-75
2022/11/28 10:09:17;;;;;;;7.07;3.80;;;9.30;86.90;;;;;;10981449;32;20076;-75
2022/11/28 10:15:33;;;;;;;7.25;3.92;;;9.40;86.90;;;;;;10982837;32;20046;-75
2022/11/28 10:21:43;;;;;;;9.20;4.78;;;9.50;86.90;;;;;;10968680;32;20014;-75
2022/11/28 10:27:48;;;;;;;6.50;4.18;;;9.30;86.70;;;;;;10981998;32;20023;-75
2022/11/28 10:33:57;;;;;;;7.90;3.67;;;9.20;87.00;;;;;;10981980;32;20058;-75
2022/11/28 10:40:26;;;;;;;7.37;5.62;;;9.40;87.40;;;;;;10979919;32;20026;-75
2022/11/28 10:46:58;;;;;;;7.50;3.90;;;9.40;87.30;;;;;;10955274;32;20036;-75
2022/11/28 10:53:21;;;;;;;4.45;3.20;;;9.40;87.50;;;;;;10789599;32;20094;-75
2022/11/28 10:59:53;;;;;;;5.90;4.12;;;9.20;87.20;;;;;;10789293;33;20336;-75
2022/11/28 11:05:55;;;;;;;7.22;3.58;;;9.30;87.40;;;;;;10789272;32;20058;-75
2022/11/28 11:12:01;;;;;;;6.40;3.67;;;9.50;87.30;;;;;;10788986;33;20032;-75
2022/11/28 11:18:19;;;;;;;7.62;3.80;;;9.60;87.20;;;;;;10788637;33;20025;-75
2022/11/28 11:24:21;;;;;;;5.55;3.05;;;9.70;87.00;;;;;;10788522;33;20039;-75
2022/11/28 11:30:32;;;;;;;8.02;3.92;;;9.80;87.00;;;;;;10788491;32;20047;-75
2022/11/28 11:36:36;;;;;;;5.80;3.00;;;10.00;86.80;;;;;;10785338;33;20062;-75
2022/11/28 11:42:54;;;;;;;6.30;4.40;;;10.10;86.90;;;;;;10824229;33;20067;-74
2022/11/28 11:48:57;;;;;;;7.22;4.95;;;10.10;87.00;;;;;;10929554;32;20049;-74
2022/11/28 11:55:17;;;;;;;8.02;5.28;;;10.20;87.00;;;;;;11017881;32;20022;-75
2022/11/28 12:01:20;;;;;;;6.75;3.67;;;10.20;86.90;;;;;;11017689;32;20185;-74
2022/11/28 12:07:56;;;;;;;5.95;3.83;;;10.30;86.70;;;;;;11017361;32;20034;-75
2022/11/28 12:14:09;;;;;;;4.95;2.83;;;10.40;86.70;;;;;;10886719;32;20066;-74
2022/11/28 12:20:30;;;;;;;6.90;4.07;;;10.50;86.60;;;;;;10898586;32;20035;-74
2022/11/28 12:26:50;;;;;;;9.45;4.07;;;10.50;86.90;;;;;;10895862;32;20023;-75
2022/11/28 12:33:38;;;;;;;5.75;3.75;;;10.40;87.10;;;;;;10900129;32;20058;-74
2022/11/28 12:40:01;;;;;;;10.77;4.80;;;10.40;87.30;;;;;;10898462;32;20406;-74
2022/11/28 12:46:03;;;;;;;6.03;4.07;;;10.40;87.30;;;;;;10904208;32;20323;-74
2022/11/28 12:52:27;;;;;;;7.32;4.78;;;10.50;87.20;;;;;;11024011;32;20026;-74
2022/11/28 12:58:47;;;;;;;8.20;4.57;;;10.50;87.20;;;;;;11023662;32;20015;-74
2022/11/28 13:05:02;;;;;;;6.93;4.50;;;10.40;87.10;;;;;;11023447;32;20029;-74
2022/11/28 13:11:33;;;;;;;5.25;3.35;;;10.30;87.20;;;;;;11022071;32;20045;-74
2022/11/28 13:18:16;;;;;;;8.20;4.65;;;10.20;87.30;;;;;;11023282;32;20045;-75
2022/11/28 13:24:47;;;;;;;5.82;4.07;;;10.20;87.40;;;;;;10906185;32;20046;-75
2022/11/28 13:30:58;;;;;;;5.70;3.67;;;10.30;87.70;;;;;;10901609;32;20035;-75
2022/11/28 13:37:08;;;;;;;5.57;3.85;;;10.30;87.40;;;;;;10904785;32;20047;-75
2022/11/28 13:43:33;;;;;;;5.05;3.47;;;10.40;87.20;;;;;;10900460;32;20047;-75
2022/11/28 13:49:35;;;;;;;6.70;3.97;;;10.50;87.20;;;;;;10900534;32;20027;-74
2022/11/28 13:55:45;;;;;;;8.70;4.57;;;10.50;87.20;;;;;;10904418;32;20022;-74
2022/11/28 14:02:02;;;;;;;6.93;4.30;;;10.30;87.10;;;;;;10990040;32;20338;-74
2022/11/28 14:08:06;;;;;;;9.57;5.93;;;9.90;87.50;;;;;;11021346;32;20049;-74
2022/11/28 14:14:30;;;;;;;12.70;7.32;;;10.10;88.00;;;;;;11012609;32;20034;-73
2022/11/28 14:20:44;;;;;;;9.32;5.18;;;10.40;87.40;;;;;;11007358;32;20018;-74
2022/11/28 14:26:59;;;;;;;9.30;7.25;;;10.50;87.00;;;;;;11007140;32;20375;-74
2022/11/28 14:33:14;;;;;;;10.35;6.78;;;10.60;86.70;;;;;;11006844;32;20045;-74
2022/11/28 14:39:18;;;;;;;9.85;6.12;;;10.70;86.80;;;;;;11017552;32;20027;-74
2022/11/28 14:45:39;;;;;;;8.73;5.40;;;10.80;86.60;;;;;;11012561;26;20381;-74
2022/11/28 14:51:47;;;;;;;11.63;7.07;;;10.80;86.30;;;;;;11057128;32;20127;-74
2022/11/28 14:57:52;;;;;;;8.13;5.70;;;10.80;85.90;;;;;;11057620;32;20106;-75
2022/11/28 15:04:25;;;;;;;16.98;7.32;;;10.80;85.90;;;;;;11056474;32;20018;-75
2022/11/28 15:11:00;;;;;;;10.27;7.65;;;10.80;86.10;;;;;;11057342;32;20034;-75
2022/11/28 15:17:04;;;;;;;8.65;5.82;;;10.60;85.80;;;;;;11051501;32;20022;-73
2022/11/28 15:23:24;;;;;;;12.05;7.20;;;10.00;86.40;;;;;;11052761;32;20022;-73
2022/11/28 15:29:27;;;;;;;11.02;7.07;;;9.70;87.10;;;;;;11056814;32;20072;-73
2022/11/28 15:35:29;;;;;;;12.98;9.25;;;10.00;87.50;;;;;;11056653;32;20049;-73
2022/11/28 15:41:32;;;;;;;12.23;7.37;;;10.20;87.30;;;;;;11056348;32;20019;-73
2022/11/28 15:47:35;;;;;;;11.10;7.93;;;10.10;86.70;;;;;;10993403;32;20434;-73
2022/11/28 15:53:41;;;;;;;13.93;10.20;;;9.80;87.40;;;;;;10950006;32;20054;-73
2022/11/28 15:59:43;;;;;;;13.50;8.20;;;9.90;87.20;;;;;;10899221;32;20430;-73
2022/11/28 16:05:57;;;;;;;12.57;8.05;;;9.80;86.90;;;;;;10949885;32;20036;-73
2022/11/28 16:12:02;;;;;;;17.40;11.52;;;9.50;87.40;;;;;;10945873;32;20027;-73
2022/11/28 16:18:05;;;;;;;14.38;9.60;;;9.50;87.50;;;;;;10899360;32;20054;-73
2022/11/28 16:24:45;;;;;;;16.77;12.40;;;9.30;87.30;;;;;;10956717;32;20023;-73
2022/11/28 16:30:55;;;;;;;19.33;13.70;;;9.20;87.70;;;;;;10895934;32;20065;-73
2022/11/28 16:36:57;;;;;;;15.65;12.32;;;9.40;87.80;;;;;;10907116;32;20023;-73
2022/11/28 16:43:03;;;;;;;16.27;10.75;;;9.60;87.30;;;;;;10906927;32;20046;-73
2022/11/28 16:49:07;;;;;;;15.57;10.88;;;9.30;87.30;;;;;;10906577;32;20027;-73
2022/11/28 16:55:39;;;;;;;15.85;10.25;;;9.30;87.70;;;;;;10906093;32;20403;-73
2022/11/28 17:01:46;;;;;;;14.68;10.57;;;9.40;87.40;;;;;;10759156;33;20060;-73
2022/11/28 17:07:51;;;;;;;16.80;11.90;;;9.40;87.70;;;;;;10894148;32;20054;-73
2022/11/28 17:13:53;;;;;;;19.67;13.70;;;9.60;87.50;;;;;;10905606;32;20019;-73
2022/11/28 17:19:55;;;;;;;19.65;13.62;;;9.70;87.40;;;;;;10905378;32;20305;-73
2022/11/28 17:25:59;;;;;;;20.42;14.23;;;9.70;87.50;;;;;;10906812;32;20030;-73
2022/11/28 17:32:01;;;;;;;17.02;13.13;;;9.80;87.50;;;;;;10905245;32;20065;-73
2022/11/28 17:38:03;;;;;;;17.62;12.37;;;9.90;87.40;;;;;;10874290;32;20023;-73
2022/11/28 17:44:06;;;;;;;26.30;14.23;;;9.90;87.30;;;;;;10862408;32;20049;-73
2022/11/28 17:50:10;;;;;;;21.87;15.27;;;9.90;87.40;;;;;;10865259;32;20028;-73
2022/11/28 17:56:12;;;;;;;13.57;9.65;;;9.80;87.20;;;;;;10865707;32;20031;-73
2022/11/28 18:02:14;;;;;;;17.37;13.20;;;9.80;87.10;;;;;;10864573;32;20422;-73
2022/11/28 18:08:18;;;;;;;19.90;12.23;;;9.70;87.10;;;;;;10864653;32;20040;-73
2022/11/28 18:14:20;;;;;;;14.23;11.63;;;9.70;87.00;;;;;;10864676;32;20067;-73
2022/11/28 18:20:27;;;;;;;15.13;11.82;;;9.70;87.00;;;;;;10901725;32;20024;-73
2022/11/28 18:26:29;;;;;;;13.38;11.30;;;9.70;87.00;;;;;;10953216;32;20023;-73
2022/11/28 18:32:33;;;;;;;16.55;9.73;;;9.70;87.10;;;;;;10901423;32;20046;-73
2022/11/28 18:38:35;;;;;;;16.05;11.65;;;9.60;87.10;;;;;;10897958;32;20024;-73
2022/11/28 18:44:37;;;;;;;16.95;14.07;;;9.50;87.30;;;;;;10900644;32;20032;-73
2022/11/28 18:50:39;;;;;;;13.95;11.35;;;9.50;87.20;;;;;;10900828;32;20343;-73
2022/11/28 18:56:47;;;;;;;10.45;8.18;;;9.50;87.20;;;;;;10900825;32;20046;-73
2022/11/28 19:02:50;;;;;;;16.00;10.43;;;9.50;87.10;;;;;;10900575;32;20015;-73
2022/11/28 19:08:58;;;;;;;17.17;11.55;;;9.30;87.30;;;;;;10900417;32;20319;-73
2022/11/28 19:15:01;;;;;;;20.00;14.10;;;9.20;87.40;;;;;;10900423;32;20073;-73
2022/11/28 19:21:15;;;;;;;17.70;12.25;;;9.30;87.40;;;;;;10895697;32;20036;-73
2022/11/28 19:27:19;;;;;;;12.57;9.88;;;9.40;87.40;;;;;;10950701;32;20027;-73
2022/11/28 19:33:23;;;;;;;16.25;11.88;;;9.40;87.20;;;;;;10899668;32;20055;-73
2022/11/28 19:39:25;;;;;;;18.85;13.00;;;9.40;87.30;;;;;;10899514;32;20338;-73
2022/11/28 19:45:28;;;;;;;20.85;13.35;;;9.40;87.30;;;;;;10898993;32;20312;-73
2022/11/28 19:51:31;;;;;;;16.33;10.50;;;9.50;87.40;;;;;;10950180;32;20047;-73
2022/11/28 19:57:37;;;;;;;15.65;11.10;;;9.50;87.40;;;;;;10898186;32;20023;-73
2022/11/28 20:03:40;;;;;;;18.25;12.77;;;9.40;87.40;;;;;;10898884;32;20424;-73
2022/11/28 20:09:43;;;;;;;12.15;9.82;;;9.40;87.30;;;;;;10898904;32;20347;-73
2022/11/28 20:15:45;;;;;;;16.02;11.52;;;9.30;87.10;;;;;;10898719;32;20065;-73
2022/11/28 20:21:48;;;;;;;13.60;9.88;;;9.30;87.20;;;;;;10898617;32;20103;-73
2022/11/28 20:27:50;;;;;;;17.80;12.63;;;9.40;87.10;;;;;;10949844;32;20053;-73
2022/11/28 20:33:54;;;;;;;14.40;11.52;;;9.40;87.10;;;;;;10898330;32;20032;-73
2022/11/28 20:39:56;;;;;;;15.05;11.10;;;9.40;87.10;;;;;;10898331;32;20046;-73
2022/11/28 20:46:20;;;;;;;12.27;10.05;;;9.40;87.00;;;;;;10914176;32;20057;-73
2022/11/28 20:52:23;;;;;;;15.05;11.25;;;9.40;87.00;;;;;;11051035;32;20022;-73
2022/11/28 20:58:30;;;;;;;10.68;8.52;;;9.40;87.30;;;;;;11055199;32;20044;-73
2022/11/28 21:04:32;;;;;;;10.35;7.78;;;9.40;87.40;;;;;;11056333;32;20048;-73
2022/11/28 21:10:34;;;;;;;11.90;8.43;;;9.30;87.30;;;;;;11061975;32;20026;-73
2022/11/28 21:16:37;;;;;;;11.63;7.95;;;9.40;87.40;;;;;;11061117;32;20102;-73
2022/11/28 21:22:39;;;;;;;9.82;8.23;;;9.30;87.30;;;;;;11061581;32;20424;-73
2022/11/28 21:29:10;;;;;;;11.48;8.20;;;9.40;87.20;;;;;;11061405;32;20084;-73
2022/11/28 21:35:12;;;;;;;10.80;7.68;;;9.40;87.30;;;;;;11061427;32;20338;-73
2022/11/28 21:41:14;;;;;;;11.23;7.75;;;9.40;87.30;;;;;;11061031;32;20036;-74
2022/11/28 21:47:57;;;;;;;9.13;6.78;;;9.30;87.30;;;;;;11005667;32;20031;-74
2022/11/28 21:54:00;;;;;;;12.98;8.35;;;9.30;87.30;;;;;;10954001;32;20019;-74
2022/11/28 22:00:03;;;;;;;9.52;7.32;;;9.30;87.20;;;;;;10902351;32;20024;-74
2022/11/28 22:06:16;;;;;;;9.23;7.03;;;9.30;87.30;;;;;;10952517;32;20053;-74
2022/11/28 22:12:19;;;;;;;23.55;10.18;;;9.40;87.40;;;;;;10901980;32;20027;-74
2022/11/28 22:18:22;;;;;;;10.88;7.57;;;9.40;87.40;;;;;;10952222;32;20359;-75
2022/11/28 22:24:24;;;;;;;15.23;9.32;;;9.30;87.40;;;;;;10901628;32;20031;-75
2022/11/28 22:30:27;;;;;;;11.43;6.85;;;9.30;87.60;;;;;;10901518;32;20327;-74
2022/11/28 22:36:32;;;;;;;12.00;6.90;;;9.30;87.50;;;;;;10952021;32;20035;-74
2022/11/28 22:42:34;;;;;;;9.65;6.72;;;9.30;87.50;;;;;;10901123;32;20027;-74
2022/11/28 22:48:37;;;;;;;8.48;7.18;;;9.40;87.50;;;;;;10882686;27;20036;-74
2022/11/28 22:54:40;;;;;;;11.10;6.95;;;9.30;87.70;;;;;;10859425;32;20035;-74
2022/11/28 23:00:42;;;;;;;12.75;8.00;;;9.40;87.70;;;;;;10852578;32;20332;-74
2022/11/28 23:06:44;;;;;;;8.15;5.50;;;9.30;87.70;;;;;;10821784;33;20416;-74
2022/11/28 23:12:47;;;;;;;7.62;4.95;;;9.30;87.70;;;;;;10825952;32;20078;-75
2022/11/28 23:18:53;;;;;;;7.70;5.07;;;9.20;87.60;;;;;;10824766;33;20347;-75
2022/11/28 23:24:55;;;;;;;8.45;5.65;;;9.20;87.70;;;;;;10825617;32;20047;-74
2022/11/28 23:31:22;;;;;;;8.18;6.05;;;9.20;87.90;;;;;;10825374;32;20344;-74
2022/11/28 23:37:24;;;;;;;8.40;6.55;;;9.20;87.80;;;;;;10825324;32;20412;-74
2022/11/28 23:43:29;;;;;;;9.55;5.85;;;9.20;87.80;;;;;;10835172;32;20429;-74
2022/11/28 23:49:31;;;;;;;7.97;5.40;;;9.20;87.90;;;;;;10861867;32;20067;-75
2022/11/28 23:55:33;;;;;;;8.88;5.95;;;9.20;87.90;;;;;;10859592;32;20031;-75
